sensor_id;sensor_type;location;lat;lon;timestamp;temperature;humidity
35445;DHT22;21562;49.476;6.086;2024-01-30T00:01:15;9.80;1.00
35445;DHT22;21562;49.476;6.086;2024-01-30T00:03:41;9.80;1.00
35445;DHT22;21562;49.476;6.086;2024-01-30T00:06:08;9.80;1.00
35445;DHT22;21562;49.476;6.086;2024-01-30T00:08:34;9.70;1.00
35445;DHT22;21562;49.476;6.086;2024-01-30T00:10:59;9.80;1.00
35445;DHT22;21562;49.476;6.086;2024-01-30T00:13:26;9.80;1.00
35445;DHT22;21562;49.476;6.086;2024-01-30T00:15:51;9.70;1.00
35445;DHT22;21562;49.476;6.086;2024-01-30T00:18:17;9.70;1.00
35445;DHT22;21562;49.476;6.086;2024-01-30T00:20:44;9.70;1.00
35445;DHT22;21562;49.476;6.086;2024-01-30T00:23:09;9.50;1.00
35445;DHT22;21562;49.476;6.086;2024-01-30T00:25:35;9.10;1.00
35445;DHT22;21562;49.476;6.086;2024-01-30T00:28:01;9.20;1.00
35445;DHT22;21562;49.476;6.086;2024-01-30T00:30:26;9.30;1.00
35445;DHT22;21562;49.476;6.086;2024-01-30T00:32:53;9.30;1.00
35445;DHT22;21562;49.476;6.086;2024-01-30T00:35:18;9.40;1.00
35445;DHT22;21562;49.476;6.086;2024-01-30T00:37:44;9.40;1.00
35445;DHT22;21562;49.476;6.086;2024-01-30T00:40:10;9.40;1.00
35445;DHT22;21562;49.476;6.086;2024-01-30T00:42:44;9.40;1.00
35445;DHT22;21562;49.476;6.086;2024-01-30T00:45:14;9.50;1.00
35445;DHT22;21562;49.476;6.086;2024-01-30T00:47:41;9.50;1.00
35445;DHT22;21562;49.476;6.086;2024-01-30T00:50:06;9.50;1.00
35445;DHT22;21562;49.476;6.086;2024-01-30T00:52:32;9.50;1.00
35445;DHT22;21562;49.476;6.086;2024-01-30T00:55:01;9.50;1.00
35445;DHT22;21562;49.476;6.086;2024-01-30T00:57:28;9.60;1.00
35445;DHT22;21562;49.476;6.086;2024-01-30T00:59:54;9.50;1.00
35445;DHT22;21562;49.476;6.086;2024-01-30T01:02:20;9.50;1.00
35445;DHT22;21562;49.476;6.086;2024-01-30T01:04:46;9.50;1.00
35445;DHT22;21562;49.476;6.086;2024-01-30T01:07:12;9.50;1.00
35445;DHT22;21562;49.476;6.086;2024-01-30T01:09:37;9.50;1.00
35445;DHT22;21562;49.476;6.086;2024-01-30T01:12:04;9.40;1.00
35445;DHT22;21562;49.476;6.086;2024-01-30T01:14:30;9.20;1.00
35445;DHT22;21562;49.476;6.086;2024-01-30T01:16:55;9.10;1.00
35445;DHT22;21562;49.476;6.086;2024-01-30T01:19:21;9.10;1.00
35445;DHT22;21562;49.476;6.086;2024-01-30T01:21:47;9.00;1.00
35445;DHT22;21562;49.476;6.086;2024-01-30T01:24:13;9.20;1.00
35445;DHT22;21562;49.476;6.086;2024-01-30T01:26:39;9.20;1.00
35445;DHT22;21562;49.476;6.086;2024-01-30T01:29:05;9.10;1.00
35445;DHT22;21562;49.476;6.086;2024-01-30T01:31:36;9.20;1.00
35445;DHT22;21562;49.476;6.086;2024-01-30T01:34:05;9.20;1.00
35445;DHT22;21562;49.476;6.086;2024-01-30T01:36:31;9.30;1.00
35445;DHT22;21562;49.476;6.086;2024-01-30T01:38:57;9.30;1.00
35445;DHT22;21562;49.476;6.086;2024-01-30T01:41:22;9.20;1.00
35445;DHT22;21562;49.476;6.086;2024-01-30T01:43:48;9.30;1.00
35445;DHT22;21562;49.476;6.086;2024-01-30T01:46:14;9.30;1.00
35445;DHT22;21562;49.476;6.086;2024-01-30T01:48:41;9.30;1.00
35445;DHT22;21562;49.476;6.086;2024-01-30T01:51:09;9.30;1.00
35445;DHT22;21562;49.476;6.086;2024-01-30T01:53:35;9.30;1.00
35445;DHT22;21562;49.476;6.086;2024-01-30T01:56:00;9.20;1.00
35445;DHT22;21562;49.476;6.086;2024-01-30T01:58:27;9.10;1.00
35445;DHT22;21562;49.476;6.086;2024-01-30T02:00:54;9.00;1.00
35445;DHT22;21562;49.476;6.086;2024-01-30T02:03:21;9.00;1.00
35445;DHT22;21562;49.476;6.086;2024-01-30T02:05:47;9.00;1.00
35445;DHT22;21562;49.476;6.086;2024-01-30T02:08:12;9.00;1.00
35445;DHT22;21562;49.476;6.086;2024-01-30T02:10:38;9.00;1.00
35445;DHT22;21562;49.476;6.086;2024-01-30T02:13:04;9.00;1.00
35445;DHT22;21562;49.476;6.086;2024-01-30T02:15:30;9.10;1.00
35445;DHT22;21562;49.476;6.086;2024-01-30T02:17:56;9.00;1.00
35445;DHT22;21562;49.476;6.086;2024-01-30T02:20:23;8.90;1.00
35445;DHT22;21562;49.476;6.086;2024-01-30T02:22:52;8.90;1.00
35445;DHT22;21562;49.476;6.086;2024-01-30T02:25:19;9.00;1.00
35445;DHT22;21562;49.476;6.086;2024-01-30T02:27:45;9.00;1.00
35445;DHT22;21562;49.476;6.086;2024-01-30T02:30:11;9.00;1.00
35445;DHT22;21562;49.476;6.086;2024-01-30T02:32:37;9.00;1.00
35445;DHT22;21562;49.476;6.086;2024-01-30T02:35:03;9.00;1.00
35445;DHT22;21562;49.476;6.086;2024-01-30T02:37:28;9.00;1.00
35445;DHT22;21562;49.476;6.086;2024-01-30T02:39:54;9.00;1.00
35445;DHT22;21562;49.476;6.086;2024-01-30T02:42:20;9.00;1.00
35445;DHT22;21562;49.476;6.086;2024-01-30T02:44:45;9.00;1.00
35445;DHT22;21562;49.476;6.086;2024-01-30T02:47:11;9.00;1.00
35445;DHT22;21562;49.476;6.086;2024-01-30T02:49:36;9.00;1.00
35445;DHT22;21562;49.476;6.086;2024-01-30T02:52:03;8.90;1.80
35445;DHT22;21562;49.476;6.086;2024-01-30T02:54:28;8.50;31.00
35445;DHT22;21562;49.476;6.086;2024-01-30T02:56:56;8.50;46.60
35445;DHT22;21562;49.476;6.086;2024-01-30T02:59:21;8.60;27.90
35445;DHT22;21562;49.476;6.086;2024-01-30T03:01:47;8.60;33.10
35445;DHT22;21562;49.476;6.086;2024-01-30T03:04:13;8.80;32.80
35445;DHT22;21562;49.476;6.086;2024-01-30T03:06:39;8.70;38.40
35445;DHT22;21562;49.476;6.086;2024-01-30T03:09:09;8.80;38.00
35445;DHT22;21562;49.476;6.086;2024-01-30T03:11:36;8.80;41.10
35445;DHT22;21562;49.476;6.086;2024-01-30T03:14:01;8.80;42.60
35445;DHT22;21562;49.476;6.086;2024-01-30T03:16:27;8.90;36.50
35445;DHT22;21562;49.476;6.086;2024-01-30T03:18:53;9.00;26.90
35445;DHT22;21562;49.476;6.086;2024-01-30T03:21:18;9.00;25.10
35445;DHT22;21562;49.476;6.086;2024-01-30T03:23:44;9.10;21.40
35445;DHT22;21562;49.476;6.086;2024-01-30T03:26:09;9.20;15.10
35445;DHT22;21562;49.476;6.086;2024-01-30T03:28:36;9.20;9.10
35445;DHT22;21562;49.476;6.086;2024-01-30T03:31:02;9.20;1.00
35445;DHT22;21562;49.476;6.086;2024-01-30T03:33:27;9.30;1.00
35445;DHT22;21562;49.476;6.086;2024-01-30T03:35:53;9.30;1.00
35445;DHT22;21562;49.476;6.086;2024-01-30T03:38:19;9.30;1.00
35445;DHT22;21562;49.476;6.086;2024-01-30T03:40:45;9.20;1.00
35445;DHT22;21562;49.476;6.086;2024-01-30T03:43:11;9.10;1.00
35445;DHT22;21562;49.476;6.086;2024-01-30T03:45:36;9.10;1.00
35445;DHT22;21562;49.476;6.086;2024-01-30T03:48:02;9.10;1.90
35445;DHT22;21562;49.476;6.086;2024-01-30T03:50:28;9.00;9.50
35445;DHT22;21562;49.476;6.086;2024-01-30T03:52:53;9.10;10.20
35445;DHT22;21562;49.476;6.086;2024-01-30T03:55:19;9.20;4.50
35445;DHT22;21562;49.476;6.086;2024-01-30T03:57:45;9.20;3.00
35445;DHT22;21562;49.476;6.086;2024-01-30T04:00:11;9.30;1.00
35445;DHT22;21562;49.476;6.086;2024-01-30T04:02:36;9.30;1.00
35445;DHT22;21562;49.476;6.086;2024-01-30T04:05:02;9.30;1.00
35445;DHT22;21562;49.476;6.086;2024-01-30T04:07:28;9.30;1.00
35445;DHT22;21562;49.476;6.086;2024-01-30T04:09:54;9.30;1.00
35445;DHT22;21562;49.476;6.086;2024-01-30T04:12:20;9.30;1.00
35445;DHT22;21562;49.476;6.086;2024-01-30T04:14:45;9.30;1.00
35445;DHT22;21562;49.476;6.086;2024-01-30T04:17:11;9.40;1.00
35445;DHT22;21562;49.476;6.086;2024-01-30T04:19:37;9.40;1.00
35445;DHT22;21562;49.476;6.086;2024-01-30T04:22:04;9.40;1.00
35445;DHT22;21562;49.476;6.086;2024-01-30T04:24:29;9.40;1.00
35445;DHT22;21562;49.476;6.086;2024-01-30T04:26:55;9.40;1.00
35445;DHT22;21562;49.476;6.086;2024-01-30T04:29:21;9.40;1.00
35445;DHT22;21562;49.476;6.086;2024-01-30T04:31:47;9.40;1.00
35445;DHT22;21562;49.476;6.086;2024-01-30T04:34:13;9.30;1.00
35445;DHT22;21562;49.476;6.086;2024-01-30T04:36:39;9.10;1.00
35445;DHT22;21562;49.476;6.086;2024-01-30T04:39:04;9.10;1.00
35445;DHT22;21562;49.476;6.086;2024-01-30T04:41:30;9.20;1.00
35445;DHT22;21562;49.476;6.086;2024-01-30T04:43:57;9.20;1.00
35445;DHT22;21562;49.476;6.086;2024-01-30T04:46:23;9.30;1.00
35445;DHT22;21562;49.476;6.086;2024-01-30T04:48:49;9.30;1.00
35445;DHT22;21562;49.476;6.086;2024-01-30T04:51:14;9.10;1.00
35445;DHT22;21562;49.476;6.086;2024-01-30T04:53:40;9.10;1.00
35445;DHT22;21562;49.476;6.086;2024-01-30T04:56:06;9.10;1.00
35445;DHT22;21562;49.476;6.086;2024-01-30T04:58:31;9.20;1.00
35445;DHT22;21562;49.476;6.086;2024-01-30T05:00:57;9.20;1.00
35445;DHT22;21562;49.476;6.086;2024-01-30T05:03:23;9.20;1.00
35445;DHT22;21562;49.476;6.086;2024-01-30T05:05:49;9.10;1.00
35445;DHT22;21562;49.476;6.086;2024-01-30T05:08:15;8.90;1.00
35445;DHT22;21562;49.476;6.086;2024-01-30T05:10:41;8.90;5.00
35445;DHT22;21562;49.476;6.086;2024-01-30T05:13:06;9.00;1.00
35445;DHT22;21562;49.476;6.086;2024-01-30T05:15:32;9.10;1.00
35445;DHT22;21562;49.476;6.086;2024-01-30T05:17:58;9.10;1.00
35445;DHT22;21562;49.476;6.086;2024-01-30T05:20:23;9.10;1.00
35445;DHT22;21562;49.476;6.086;2024-01-30T05:22:49;9.20;1.00
35445;DHT22;21562;49.476;6.086;2024-01-30T05:25:14;9.20;1.00
35445;DHT22;21562;49.476;6.086;2024-01-30T05:27:40;9.20;1.00
35445;DHT22;21562;49.476;6.086;2024-01-30T05:30:06;9.10;1.00
35445;DHT22;21562;49.476;6.086;2024-01-30T05:32:32;9.10;1.00
35445;DHT22;21562;49.476;6.086;2024-01-30T05:34:58;9.10;1.00
35445;DHT22;21562;49.476;6.086;2024-01-30T05:37:24;9.10;1.00
35445;DHT22;21562;49.476;6.086;2024-01-30T05:39:49;9.00;1.00
35445;DHT22;21562;49.476;6.086;2024-01-30T05:42:15;9.00;1.00
35445;DHT22;21562;49.476;6.086;2024-01-30T05:44:42;9.00;1.00
35445;DHT22;21562;49.476;6.086;2024-01-30T05:47:08;9.10;1.00
35445;DHT22;21562;49.476;6.086;2024-01-30T05:49:34;9.10;1.00
35445;DHT22;21562;49.476;6.086;2024-01-30T05:52:02;9.20;1.00
35445;DHT22;21562;49.476;6.086;2024-01-30T05:54:27;9.20;1.00
35445;DHT22;21562;49.476;6.086;2024-01-30T05:56:53;9.20;1.00
35445;DHT22;21562;49.476;6.086;2024-01-30T05:59:19;9.20;1.00
35445;DHT22;21562;49.476;6.086;2024-01-30T06:01:48;9.20;1.00
35445;DHT22;21562;49.476;6.086;2024-01-30T06:04:14;9.20;1.00
35445;DHT22;21562;49.476;6.086;2024-01-30T06:06:40;9.10;1.00
35445;DHT22;21562;49.476;6.086;2024-01-30T06:09:06;8.90;3.50
35445;DHT22;21562;49.476;6.086;2024-01-30T06:11:34;9.00;5.60
35445;DHT22;21562;49.476;6.086;2024-01-30T06:14:00;9.00;15.50
35445;DHT22;21562;49.476;6.086;2024-01-30T06:16:25;9.10;9.00
35445;DHT22;21562;49.476;6.086;2024-01-30T06:18:55;9.20;3.60
35445;DHT22;21562;49.476;6.086;2024-01-30T06:21:20;9.00;5.80
35445;DHT22;21562;49.476;6.086;2024-01-30T06:23:46;9.10;7.40
35445;DHT22;21562;49.476;6.086;2024-01-30T06:26:12;9.20;4.20
35445;DHT22;21562;49.476;6.086;2024-01-30T06:28:37;9.30;1.00
35445;DHT22;21562;49.476;6.086;2024-01-30T06:31:03;9.30;2.00
35445;DHT22;21562;49.476;6.086;2024-01-30T06:33:29;9.30;1.00
35445;DHT22;21562;49.476;6.086;2024-01-30T06:35:55;9.10;1.00
35445;DHT22;21562;49.476;6.086;2024-01-30T06:38:20;9.20;1.00
35445;DHT22;21562;49.476;6.086;2024-01-30T06:40:46;9.20;3.00
35445;DHT22;21562;49.476;6.086;2024-01-30T06:43:12;9.30;1.00
35445;DHT22;21562;49.476;6.086;2024-01-30T06:45:37;9.30;1.00
35445;DHT22;21562;49.476;6.086;2024-01-30T06:48:03;9.20;8.10
35445;DHT22;21562;49.476;6.086;2024-01-30T06:50:29;9.00;39.00
35445;DHT22;21562;49.476;6.086;2024-01-30T06:52:55;9.00;37.80
35445;DHT22;21562;49.476;6.086;2024-01-30T06:55:20;9.10;25.80
35445;DHT22;21562;49.476;6.086;2024-01-30T06:57:46;9.30;14.00
35445;DHT22;21562;49.476;6.086;2024-01-30T07:00:12;9.40;8.20
35445;DHT22;21562;49.476;6.086;2024-01-30T07:02:39;9.40;1.00
35445;DHT22;21562;49.476;6.086;2024-01-30T07:05:04;9.40;1.00
35445;DHT22;21562;49.476;6.086;2024-01-30T07:07:30;9.40;1.00
35445;DHT22;21562;49.476;6.086;2024-01-30T07:09:56;9.40;1.00
35445;DHT22;21562;49.476;6.086;2024-01-30T07:12:24;9.10;1.00
35445;DHT22;21562;49.476;6.086;2024-01-30T07:14:51;8.80;68.60
35445;DHT22;21562;49.476;6.086;2024-01-30T07:17:17;8.80;66.40
35445;DHT22;21562;49.476;6.086;2024-01-30T07:19:43;8.90;61.10
35445;DHT22;21562;49.476;6.086;2024-01-30T07:22:08;9.10;40.80
35445;DHT22;21562;49.476;6.086;2024-01-30T07:24:34;9.00;39.40
35445;DHT22;21562;49.476;6.086;2024-01-30T07:27:00;9.00;35.20
35445;DHT22;21562;49.476;6.086;2024-01-30T07:29:26;9.10;26.70
35445;DHT22;21562;49.476;6.086;2024-01-30T07:31:51;9.20;18.30
35445;DHT22;21562;49.476;6.086;2024-01-30T07:34:17;9.20;21.50
35445;DHT22;21562;49.476;6.086;2024-01-30T07:36:43;9.20;18.40
35445;DHT22;21562;49.476;6.086;2024-01-30T07:39:08;9.30;16.90
35445;DHT22;21562;49.476;6.086;2024-01-30T07:41:35;9.30;16.70
35445;DHT22;21562;49.476;6.086;2024-01-30T07:44:02;9.30;24.20
35445;DHT22;21562;49.476;6.086;2024-01-30T07:46:28;9.20;27.90
35445;DHT22;21562;49.476;6.086;2024-01-30T07:48:54;9.10;47.90
35445;DHT22;21562;49.476;6.086;2024-01-30T07:51:21;9.10;35.00
35445;DHT22;21562;49.476;6.086;2024-01-30T07:53:46;9.20;45.40
35445;DHT22;21562;49.476;6.086;2024-01-30T07:56:12;9.10;45.90
35445;DHT22;21562;49.476;6.086;2024-01-30T07:58:38;9.20;47.50
35445;DHT22;21562;49.476;6.086;2024-01-30T08:01:03;9.30;47.30
35445;DHT22;21562;49.476;6.086;2024-01-30T08:03:29;9.40;36.40
35445;DHT22;21562;49.476;6.086;2024-01-30T08:05:55;9.50;26.20
35445;DHT22;21562;49.476;6.086;2024-01-30T08:08:20;9.60;20.30
35445;DHT22;21562;49.476;6.086;2024-01-30T08:10:46;9.50;22.80
35445;DHT22;21562;49.476;6.086;2024-01-30T08:13:12;9.50;25.50
35445;DHT22;21562;49.476;6.086;2024-01-30T08:15:37;9.60;28.90
35445;DHT22;21562;49.476;6.086;2024-01-30T08:18:03;9.60;26.70
35445;DHT22;21562;49.476;6.086;2024-01-30T08:20:30;9.70;21.50
35445;DHT22;21562;49.476;6.086;2024-01-30T08:22:56;9.80;20.30
35445;DHT22;21562;49.476;6.086;2024-01-30T08:25:21;9.90;24.30
35445;DHT22;21562;49.476;6.086;2024-01-30T08:27:47;9.80;29.10
35445;DHT22;21562;49.476;6.086;2024-01-30T08:30:14;9.70;47.60
35445;DHT22;21562;49.476;6.086;2024-01-30T08:32:39;9.80;64.00
35445;DHT22;21562;49.476;6.086;2024-01-30T08:35:07;9.80;54.40
35445;DHT22;21562;49.476;6.086;2024-01-30T08:37:33;9.90;71.00
35445;DHT22;21562;49.476;6.086;2024-01-30T08:39:59;9.80;90.10
35445;DHT22;21562;49.476;6.086;2024-01-30T08:42:25;9.80;96.70
35445;DHT22;21562;49.476;6.086;2024-01-30T08:44:51;9.90;99.90
35445;DHT22;21562;49.476;6.086;2024-01-30T08:47:18;9.90;62.10
35445;DHT22;21562;49.476;6.086;2024-01-30T08:49:44;9.90;74.30
35445;DHT22;21562;49.476;6.086;2024-01-30T08:52:10;10.00;50.70
35445;DHT22;21562;49.476;6.086;2024-01-30T08:54:36;10.10;41.80
35445;DHT22;21562;49.476;6.086;2024-01-30T08:57:02;10.10;43.20
35445;DHT22;21562;49.476;6.086;2024-01-30T08:59:28;10.20;48.10
35445;DHT22;21562;49.476;6.086;2024-01-30T09:01:53;10.20;46.10
35445;DHT22;21562;49.476;6.086;2024-01-30T09:04:21;10.20;57.50
35445;DHT22;21562;49.476;6.086;2024-01-30T09:06:48;10.00;73.70
35445;DHT22;21562;49.476;6.086;2024-01-30T09:09:14;9.60;99.90
35445;DHT22;21562;49.476;6.086;2024-01-30T09:11:40;9.20;99.90
35445;DHT22;21562;49.476;6.086;2024-01-30T09:14:06;9.30;99.90
35445;DHT22;21562;49.476;6.086;2024-01-30T09:16:31;9.60;99.90
35445;DHT22;21562;49.476;6.086;2024-01-30T09:18:57;9.60;91.00
35445;DHT22;21562;49.476;6.086;2024-01-30T09:21:23;9.40;99.90
35445;DHT22;21562;49.476;6.086;2024-01-30T09:23:49;9.50;99.90
35445;DHT22;21562;49.476;6.086;2024-01-30T09:26:14;9.60;99.90
35445;DHT22;21562;49.476;6.086;2024-01-30T09:28:40;9.70;99.90
35445;DHT22;21562;49.476;6.086;2024-01-30T09:31:11;9.90;99.90
35445;DHT22;21562;49.476;6.086;2024-01-30T09:33:38;10.10;99.90
35445;DHT22;21562;49.476;6.086;2024-01-30T09:36:05;10.20;99.90
35445;DHT22;21562;49.476;6.086;2024-01-30T09:38:31;10.30;99.90
35445;DHT22;21562;49.476;6.086;2024-01-30T09:41:03;10.30;99.90
35445;DHT22;21562;49.476;6.086;2024-01-30T09:43:33;10.40;99.90
35445;DHT22;21562;49.476;6.086;2024-01-30T09:46:01;10.50;68.90
35445;DHT22;21562;49.476;6.086;2024-01-30T09:48:30;10.60;55.50
35445;DHT22;21562;49.476;6.086;2024-01-30T09:50:57;10.60;17.70
35445;DHT22;21562;49.476;6.086;2024-01-30T09:53:24;10.60;30.80
35445;DHT22;21562;49.476;6.086;2024-01-30T09:55:50;10.70;20.90
35445;DHT22;21562;49.476;6.086;2024-01-30T09:58:16;10.80;23.40
35445;DHT22;21562;49.476;6.086;2024-01-30T10:00:42;10.80;15.30
35445;DHT22;21562;49.476;6.086;2024-01-30T10:03:08;10.90;9.70
35445;DHT22;21562;49.476;6.086;2024-01-30T10:05:36;10.90;11.80
35445;DHT22;21562;49.476;6.086;2024-01-30T10:08:06;10.90;14.60
35445;DHT22;21562;49.476;6.086;2024-01-30T10:10:33;10.90;7.00
35445;DHT22;21562;49.476;6.086;2024-01-30T10:13:01;10.80;33.90
35445;DHT22;21562;49.476;6.086;2024-01-30T10:15:28;10.90;24.20
35445;DHT22;21562;49.476;6.086;2024-01-30T10:17:54;11.10;12.00
35445;DHT22;21562;49.476;6.086;2024-01-30T10:20:19;11.10;20.00
35445;DHT22;21562;49.476;6.086;2024-01-30T10:22:48;10.80;52.00
35445;DHT22;21562;49.476;6.086;2024-01-30T10:25:15;10.90;68.10
35445;DHT22;21562;49.476;6.086;2024-01-30T10:27:40;10.90;84.60
35445;DHT22;21562;49.476;6.086;2024-01-30T10:30:07;10.90;60.00
35445;DHT22;21562;49.476;6.086;2024-01-30T10:32:33;11.10;60.60
35445;DHT22;21562;49.476;6.086;2024-01-30T10:34:59;11.20;4.80
35445;DHT22;21562;49.476;6.086;2024-01-30T10:37:25;11.20;37.80
35445;DHT22;21562;49.476;6.086;2024-01-30T10:39:53;11.30;24.70
35445;DHT22;21562;49.476;6.086;2024-01-30T10:42:19;11.40;5.30
35445;DHT22;21562;49.476;6.086;2024-01-30T10:45:06;11.50;1.00
35445;DHT22;21562;49.476;6.086;2024-01-30T10:47:36;11.40;5.10
35445;DHT22;21562;49.476;6.086;2024-01-30T10:50:05;11.40;22.30
35445;DHT22;21562;49.476;6.086;2024-01-30T10:52:32;11.30;31.40
35445;DHT22;21562;49.476;6.086;2024-01-30T10:54:58;11.30;37.70
35445;DHT22;21562;49.476;6.086;2024-01-30T10:57:25;11.10;63.00
35445;DHT22;21562;49.476;6.086;2024-01-30T11:00:06;11.00;94.20
35445;DHT22;21562;49.476;6.086;2024-01-30T11:02:39;11.00;96.70
35445;DHT22;21562;49.476;6.086;2024-01-30T11:05:05;11.00;74.40
35445;DHT22;21562;49.476;6.086;2024-01-30T11:07:31;11.00;99.90
35445;DHT22;21562;49.476;6.086;2024-01-30T11:12:26;11.20;71.50
35445;DHT22;21562;49.476;6.086;2024-01-30T11:15:21;11.10;48.40
35445;DHT22;21562;49.476;6.086;2024-01-30T11:20:22;11.40;23.30
35445;DHT22;21562;49.476;6.086;2024-01-30T11:22:55;11.20;58.50
35445;DHT22;21562;49.476;6.086;2024-01-30T11:25:22;11.10;99.90
35445;DHT22;21562;49.476;6.086;2024-01-30T11:27:51;11.10;99.90
35445;DHT22;21562;49.476;6.086;2024-01-30T11:30:23;11.30;91.70
35445;DHT22;21562;49.476;6.086;2024-01-30T11:33:02;11.50;43.40
35445;DHT22;21562;49.476;6.086;2024-01-30T11:35:34;11.70;18.00
35445;DHT22;21562;49.476;6.086;2024-01-30T11:38:01;11.50;28.40
35445;DHT22;21562;49.476;6.086;2024-01-30T11:40:31;11.60;52.20
35445;DHT22;21562;49.476;6.086;2024-01-30T11:42:59;11.80;30.90
35445;DHT22;21562;49.476;6.086;2024-01-30T11:45:26;11.70;36.20
35445;DHT22;21562;49.476;6.086;2024-01-30T11:47:51;11.80;21.30
35445;DHT22;21562;49.476;6.086;2024-01-30T11:50:17;11.90;11.80
35445;DHT22;21562;49.476;6.086;2024-01-30T11:52:43;12.10;2.50
35445;DHT22;21562;49.476;6.086;2024-01-30T11:55:09;12.10;1.00
35445;DHT22;21562;49.476;6.086;2024-01-30T11:57:35;12.10;1.70
35445;DHT22;21562;49.476;6.086;2024-01-30T12:00:03;12.20;1.00
35445;DHT22;21562;49.476;6.086;2024-01-30T12:02:39;12.20;1.00
35445;DHT22;21562;49.476;6.086;2024-01-30T12:05:05;11.90;29.10
35445;DHT22;21562;49.476;6.086;2024-01-30T12:07:31;12.20;18.20
35445;DHT22;21562;49.476;6.086;2024-01-30T12:09:57;12.40;1.00
35445;DHT22;21562;49.476;6.086;2024-01-30T12:12:25;12.50;1.00
35445;DHT22;21562;49.476;6.086;2024-01-30T12:14:51;12.10;12.70
35445;DHT22;21562;49.476;6.086;2024-01-30T12:17:43;12.00;41.20
35445;DHT22;21562;49.476;6.086;2024-01-30T12:20:11;12.00;49.00
35445;DHT22;21562;49.476;6.086;2024-01-30T12:22:38;11.90;88.90
35445;DHT22;21562;49.476;6.086;2024-01-30T12:25:09;12.10;49.50
35445;DHT22;21562;49.476;6.086;2024-01-30T12:27:36;12.00;59.70
35445;DHT22;21562;49.476;6.086;2024-01-30T12:30:08;11.80;99.90
35445;DHT22;21562;49.476;6.086;2024-01-30T12:32:40;11.80;99.90
35445;DHT22;21562;49.476;6.086;2024-01-30T12:35:17;12.00;90.50
35445;DHT22;21562;49.476;6.086;2024-01-30T12:37:44;12.10;85.40
35445;DHT22;21562;49.476;6.086;2024-01-30T12:40:11;12.10;54.30
35445;DHT22;21562;49.476;6.086;2024-01-30T12:42:39;12.20;87.60
35445;DHT22;21562;49.476;6.086;2024-01-30T12:45:05;12.30;69.80
35445;DHT22;21562;49.476;6.086;2024-01-30T12:47:31;12.40;48.10
35445;DHT22;21562;49.476;6.086;2024-01-30T12:49:57;12.60;21.60
35445;DHT22;21562;49.476;6.086;2024-01-30T12:52:23;12.80;1.00
35445;DHT22;21562;49.476;6.086;2024-01-30T12:54:50;12.80;1.00
35445;DHT22;21562;49.476;6.086;2024-01-30T12:57:16;12.60;12.90
35445;DHT22;21562;49.476;6.086;2024-01-30T12:59:43;12.60;29.80
35445;DHT22;21562;49.476;6.086;2024-01-30T13:02:08;12.60;49.30
35445;DHT22;21562;49.476;6.086;2024-01-30T13:04:35;12.30;99.90
35445;DHT22;21562;49.476;6.086;2024-01-30T13:07:01;12.20;99.90
35445;DHT22;21562;49.476;6.086;2024-01-30T13:09:26;12.50;99.90
35445;DHT22;21562;49.476;6.086;2024-01-30T13:11:53;12.40;99.90
35445;DHT22;21562;49.476;6.086;2024-01-30T13:14:19;12.60;99.90
35445;DHT22;21562;49.476;6.086;2024-01-30T13:16:45;12.30;99.90
35445;DHT22;21562;49.476;6.086;2024-01-30T13:19:10;12.10;99.90
35445;DHT22;21562;49.476;6.086;2024-01-30T13:21:36;12.10;99.90
35445;DHT22;21562;49.476;6.086;2024-01-30T13:24:03;12.00;99.90
35445;DHT22;21562;49.476;6.086;2024-01-30T13:26:28;11.90;99.90
35445;DHT22;21562;49.476;6.086;2024-01-30T13:28:56;11.90;99.90
35445;DHT22;21562;49.476;6.086;2024-01-30T13:31:22;11.90;99.90
35445;DHT22;21562;49.476;6.086;2024-01-30T13:33:47;11.70;99.90
35445;DHT22;21562;49.476;6.086;2024-01-30T13:36:14;11.50;99.90
35445;DHT22;21562;49.476;6.086;2024-01-30T13:38:40;11.60;99.90
35445;DHT22;21562;49.476;6.086;2024-01-30T13:41:06;11.70;99.90
35445;DHT22;21562;49.476;6.086;2024-01-30T13:43:31;12.00;99.90
35445;DHT22;21562;49.476;6.086;2024-01-30T13:45:57;12.10;99.90
35445;DHT22;21562;49.476;6.086;2024-01-30T13:48:23;12.30;99.90
35445;DHT22;21562;49.476;6.086;2024-01-30T13:50:49;12.40;99.90
35445;DHT22;21562;49.476;6.086;2024-01-30T13:53:15;12.20;99.90
35445;DHT22;21562;49.476;6.086;2024-01-30T13:55:41;12.00;99.90
35445;DHT22;21562;49.476;6.086;2024-01-30T13:58:07;11.60;99.90
35445;DHT22;21562;49.476;6.086;2024-01-30T14:00:33;11.60;99.90
35445;DHT22;21562;49.476;6.086;2024-01-30T14:02:59;11.70;99.90
35445;DHT22;21562;49.476;6.086;2024-01-30T14:05:25;11.70;99.90
35445;DHT22;21562;49.476;6.086;2024-01-30T14:07:51;11.70;99.90
35445;DHT22;21562;49.476;6.086;2024-01-30T14:10:17;11.60;99.90
35445;DHT22;21562;49.476;6.086;2024-01-30T14:12:43;11.70;99.90
35445;DHT22;21562;49.476;6.086;2024-01-30T14:15:10;11.70;99.90
35445;DHT22;21562;49.476;6.086;2024-01-30T14:17:36;11.60;99.90
35445;DHT22;21562;49.476;6.086;2024-01-30T14:20:05;11.50;99.90
35445;DHT22;21562;49.476;6.086;2024-01-30T14:22:33;11.40;99.90
35445;DHT22;21562;49.476;6.086;2024-01-30T14:24:59;11.60;99.90
35445;DHT22;21562;49.476;6.086;2024-01-30T14:27:25;11.60;99.90
35445;DHT22;21562;49.476;6.086;2024-01-30T14:29:50;11.80;99.90
35445;DHT22;21562;49.476;6.086;2024-01-30T14:32:16;11.80;99.90
35445;DHT22;21562;49.476;6.086;2024-01-30T14:34:41;11.80;99.90
35445;DHT22;21562;49.476;6.086;2024-01-30T14:37:07;12.00;99.90
35445;DHT22;21562;49.476;6.086;2024-01-30T14:39:33;12.00;99.90
35445;DHT22;21562;49.476;6.086;2024-01-30T14:41:59;12.10;99.90
35445;DHT22;21562;49.476;6.086;2024-01-30T14:44:25;12.00;99.90
35445;DHT22;21562;49.476;6.086;2024-01-30T14:46:51;12.10;99.90
35445;DHT22;21562;49.476;6.086;2024-01-30T14:49:17;12.10;99.90
35445;DHT22;21562;49.476;6.086;2024-01-30T14:51:42;12.10;99.90
35445;DHT22;21562;49.476;6.086;2024-01-30T14:54:08;12.20;99.90
35445;DHT22;21562;49.476;6.086;2024-01-30T14:56:34;12.00;99.90
35445;DHT22;21562;49.476;6.086;2024-01-30T14:59:00;12.00;99.90
35445;DHT22;21562;49.476;6.086;2024-01-30T15:01:26;12.10;99.90
35445;DHT22;21562;49.476;6.086;2024-01-30T15:03:52;12.20;99.90
35445;DHT22;21562;49.476;6.086;2024-01-30T15:06:18;12.30;99.90
35445;DHT22;21562;49.476;6.086;2024-01-30T15:08:44;12.40;99.90
35445;DHT22;21562;49.476;6.086;2024-01-30T15:11:11;12.50;99.90
35445;DHT22;21562;49.476;6.086;2024-01-30T15:13:36;12.40;99.90
35445;DHT22;21562;49.476;6.086;2024-01-30T15:16:03;12.10;99.90
35445;DHT22;21562;49.476;6.086;2024-01-30T15:18:30;11.90;99.90
35445;DHT22;21562;49.476;6.086;2024-01-30T15:20:56;12.00;99.90
35445;DHT22;21562;49.476;6.086;2024-01-30T15:23:22;12.00;99.90
35445;DHT22;21562;49.476;6.086;2024-01-30T15:25:47;11.80;99.90
35445;DHT22;21562;49.476;6.086;2024-01-30T15:28:13;11.70;99.90
35445;DHT22;21562;49.476;6.086;2024-01-30T15:30:40;11.70;99.90
35445;DHT22;21562;49.476;6.086;2024-01-30T15:33:09;11.70;99.90
35445;DHT22;21562;49.476;6.086;2024-01-30T15:35:35;11.70;99.90
35445;DHT22;21562;49.476;6.086;2024-01-30T15:38:00;11.50;99.90
35445;DHT22;21562;49.476;6.086;2024-01-30T15:40:26;11.60;99.90
35445;DHT22;21562;49.476;6.086;2024-01-30T15:42:52;11.70;99.90
35445;DHT22;21562;49.476;6.086;2024-01-30T15:45:18;11.70;99.90
35445;DHT22;21562;49.476;6.086;2024-01-30T15:47:45;11.80;99.90